FBU92K KEWR-LFPO
Flight info
| Callsign | FBU92K |
|---|---|
| Flight time | N/A |
| Altitude | 35000 |
| Route | MERIT DCT HFD DCT PUT DCT BOS DCT WHALE N93B SUPRY/M085F370 DCT 46N050W 48N040W 50N030W 51N020W DCT DINIM DCT ELSOX/M085F390 DCT TAKAS/N0481F390 DCT ALUTA DCT DEGEX DCT KORER UN482 ANG/N0466F270 UN482 DEKJA/N0474F280 UN482 NIMER DCT CAD |
| Aircraft | A35K/H-SDE2E3GHIJ1J3J4J5LM1ORWXY/LB1D1 |
Departure
| Time | 2026-04-24 07:57 |
|---|---|
| Airport | Newark Liberty International Airport (KEWR) |
Arrival
| Time | N/A |
|---|---|
| Airport | Paris-Orly Airport (LFPO) |
| Time | Latitude | Longitude | Altitude | Speed | Heading |
|---|---|---|---|---|---|
| 2026-04-24 07:47 | 40.68853 | -74.17519 | 25 ft | 4 kts | 116° |
| 2026-04-24 07:47 | 40.68864 | -74.17550 | 26 ft | 3 kts | 116° |
| 2026-04-24 07:48 | 40.68866 | -74.17554 | 27 ft | 0 kts | 116° |
| 2026-04-24 07:51 | 40.68865 | -74.17551 | 26 ft | 2 kts | 116° |
| 2026-04-24 07:52 | 40.68844 | -74.17494 | 27 ft | 9 kts | 116° |
| 2026-04-24 07:52 | 40.68814 | -74.17414 | 28 ft | 10 kts | 116° |
| 2026-04-24 07:52 | 40.68778 | -74.17333 | 28 ft | 7 kts | 144° |
| 2026-04-24 07:52 | 40.68751 | -74.17341 | 29 ft | 5 kts | 199° |
| 2026-04-24 07:53 | 40.68685 | -74.17378 | 29 ft | 14 kts | 205° |
| 2026-04-24 07:53 | 40.68583 | -74.17443 | 29 ft | 19 kts | 206° |
| 2026-04-24 07:53 | 40.68464 | -74.17517 | 29 ft | 18 kts | 207° |
| 2026-04-24 07:53 | 40.68352 | -74.17588 | 28 ft | 18 kts | 206° |
| 2026-04-24 07:54 | 40.68235 | -74.17664 | 28 ft | 19 kts | 206° |
| 2026-04-24 07:54 | 40.68113 | -74.17742 | 28 ft | 18 kts | 206° |
| 2026-04-24 07:54 | 40.68039 | -74.17760 | 28 ft | 9 kts | 155° |
| 2026-04-24 07:54 | 40.68003 | -74.17689 | 36 ft | 14 kts | 116° |
| 2026-04-24 07:55 | 40.67953 | -74.17564 | 27 ft | 13 kts | 139° |
| 2026-04-24 07:55 | 40.67896 | -74.17563 | 27 ft | 8 kts | 195° |
| 2026-04-24 07:55 | 40.67839 | -74.17575 | 27 ft | 8 kts | 159° |
| 2026-04-24 07:55 | 40.67803 | -74.17511 | 26 ft | 10 kts | 112° |
| 2026-04-24 07:56 | 40.67782 | -74.17419 | 31 ft | 9 kts | 92° |
| 2026-04-24 07:56 | 40.67803 | -74.17394 | 30 ft | 4 kts | 21° |
| 2026-04-24 07:56 | 40.67835 | -74.17375 | 29 ft | 11 kts | 25° |
| 2026-04-24 07:56 | 40.68069 | -74.17227 | 27 ft | 69 kts | 26° |
| 2026-04-24 07:57 | 40.68704 | -74.16824 | 27 ft | 129 kts | 25° |
| 2026-04-24 07:57 | 40.69653 | -74.16233 | 105 ft | 170 kts | 20° |
| 2026-04-24 07:57 | 40.70712 | -74.15636 | 782 ft | 160 kts | 25° |
| 2026-04-24 07:57 | 40.71703 | -74.14986 | 1395 ft | 164 kts | 24° |
| 2026-04-24 07:58 | 40.72770 | -74.14276 | 1653 ft | 180 kts | 25° |
| 2026-04-24 07:58 | 40.73937 | -74.13486 | 1904 ft | 198 kts | 25° |
| 2026-04-24 07:58 | 40.75237 | -74.12612 | 2109 ft | 220 kts | 25° |
| 2026-04-24 07:58 | 40.76649 | -74.11669 | 2509 ft | 233 kts | 24° |
| 2026-04-24 07:59 | 40.78118 | -74.10698 | 3079 ft | 239 kts | 24° |
| 2026-04-24 07:59 | 40.79631 | -74.09718 | 3628 ft | 246 kts | 21° |
| 2026-04-24 07:59 | 40.81183 | -74.08744 | 4178 ft | 252 kts | 20° |
| 2026-04-24 07:59 | 40.82801 | -74.07729 | 4753 ft | 259 kts | 19° |
| 2026-04-24 08:00 | 40.84451 | -74.06680 | 5332 ft | 266 kts | 19° |
| 2026-04-24 08:00 | 40.86139 | -74.05592 | 5945 ft | 273 kts | 19° |
| 2026-04-24 08:00 | 40.87861 | -74.04467 | 6519 ft | 280 kts | 18° |
| 2026-04-24 08:00 | 40.89607 | -74.03312 | 7295 ft | 279 kts | 18° |
| 2026-04-24 08:01 | 40.91328 | -74.02162 | 8167 ft | 276 kts | 17° |
| 2026-04-24 08:01 | 40.93038 | -74.01016 | 9053 ft | 274 kts | 17° |
| 2026-04-24 08:01 | 40.94740 | -73.99881 | 9900 ft | 273 kts | 16° |
| 2026-04-24 08:01 | 40.96456 | -73.98748 | 10477 ft | 282 kts | 15° |
| 2026-04-24 08:02 | 40.98276 | -73.97571 | 10826 ft | 299 kts | 15° |
| 2026-04-24 08:02 | 41.00204 | -73.96330 | 11175 ft | 316 kts | 16° |
| 2026-04-24 08:02 | 41.02228 | -73.95017 | 11534 ft | 332 kts | 17° |
| 2026-04-24 08:02 | 41.04334 | -73.93615 | 11907 ft | 347 kts | 19° |
| 2026-04-24 08:03 | 41.06276 | -73.91528 | 12424 ft | 374 kts | 40° |
| 2026-04-24 08:03 | 41.07809 | -73.88659 | 13143 ft | 387 kts | 50° |
| 2026-04-24 08:03 | 41.09098 | -73.85492 | 13812 ft | 396 kts | 54° |
| 2026-04-24 08:03 | 41.10314 | -73.82181 | 14374 ft | 402 kts | 55° |
| 2026-04-24 08:04 | 41.11536 | -73.78839 | 14955 ft | 405 kts | 54° |
| 2026-04-24 08:04 | 41.12808 | -73.75488 | 15559 ft | 407 kts | 53° |
| 2026-04-24 08:04 | 41.14127 | -73.72154 | 16147 ft | 410 kts | 52° |
| 2026-04-24 08:04 | 41.15486 | -73.68827 | 16769 ft | 411 kts | 51° |
| 2026-04-24 08:05 | 41.16877 | -73.65485 | 17356 ft | 415 kts | 51° |
| 2026-04-24 08:05 | 41.18286 | -73.62129 | 17950 ft | 418 kts | 51° |
| 2026-04-24 08:05 | 41.19708 | -73.58747 | 18490 ft | 422 kts | 51° |
| 2026-04-24 08:05 | 41.21129 | -73.55365 | 18971 ft | 427 kts | 51° |
| 2026-04-24 08:06 | 41.22594 | -73.51865 | 19480 ft | 431 kts | 51° |
| 2026-04-24 08:06 | 41.24032 | -73.48415 | 19990 ft | 434 kts | 51° |
| 2026-04-24 08:06 | 41.25522 | -73.44836 | 20503 ft | 439 kts | 51° |
| 2026-04-24 08:06 | 41.26986 | -73.41310 | 21011 ft | 443 kts | 51° |
| 2026-04-24 08:07 | 41.28478 | -73.37710 | 21543 ft | 447 kts | 51° |
| 2026-04-24 08:07 | 41.29986 | -73.34068 | 22028 ft | 452 kts | 51° |
| 2026-04-24 08:07 | 41.31512 | -73.30377 | 22526 ft | 457 kts | 51° |
| 2026-04-24 08:07 | 41.33045 | -73.26666 | 23007 ft | 461 kts | 51° |
| 2026-04-24 08:08 | 41.34600 | -73.22899 | 23493 ft | 466 kts | 51° |
| 2026-04-24 08:08 | 41.36165 | -73.19102 | 23925 ft | 470 kts | 51° |
| 2026-04-24 08:08 | 41.37738 | -73.15274 | 24391 ft | 472 kts | 51° |
| 2026-04-24 08:09 | 41.40973 | -73.07624 | 25305 ft | 475 kts | 49° |
| 2026-04-24 08:09 | 41.42665 | -73.03828 | 25751 ft | 478 kts | 49° |
| 2026-04-24 08:09 | 41.44382 | -73.00011 | 26216 ft | 480 kts | 49° |
| 2026-04-24 08:09 | 41.46100 | -72.96183 | 26673 ft | 483 kts | 49° |
| 2026-04-24 08:10 | 41.47820 | -72.92330 | 27131 ft | 486 kts | 49° |
| 2026-04-24 08:10 | 41.49544 | -72.88441 | 27572 ft | 489 kts | 49° |
| 2026-04-24 08:10 | 41.51278 | -72.84509 | 28009 ft | 492 kts | 49° |
| 2026-04-24 08:10 | 41.53009 | -72.80569 | 28435 ft | 495 kts | 49° |
| 2026-04-24 08:11 | 41.54751 | -72.76594 | 28859 ft | 498 kts | 49° |
| 2026-04-24 08:11 | 41.56506 | -72.72585 | 29273 ft | 500 kts | 49° |
| 2026-04-24 08:11 | 41.58261 | -72.68568 | 29659 ft | 503 kts | 49° |
| 2026-04-24 08:11 | 41.60031 | -72.64516 | 30010 ft | 506 kts | 49° |
| 2026-04-24 08:12 | 41.61810 | -72.60442 | 30286 ft | 509 kts | 49° |
| 2026-04-24 08:12 | 41.63600 | -72.56335 | 30548 ft | 513 kts | 49° |
| 2026-04-24 08:12 | 41.65401 | -72.52213 | 30835 ft | 514 kts | 48° |
| 2026-04-24 08:12 | 41.67229 | -72.48116 | 31241 ft | 512 kts | 47° |
| 2026-04-24 08:13 | 41.69071 | -72.44041 | 31617 ft | 512 kts | 47° |
| 2026-04-24 08:13 | 41.70921 | -72.39964 | 31989 ft | 512 kts | 47° |
| 2026-04-24 08:13 | 41.72770 | -72.35884 | 32342 ft | 512 kts | 47° |
| 2026-04-24 08:13 | 41.74608 | -72.31817 | 32720 ft | 512 kts | 47° |
| 2026-04-24 08:14 | 41.76448 | -72.27729 | 33055 ft | 512 kts | 47° |
| 2026-04-24 08:14 | 41.78280 | -72.23648 | 33395 ft | 512 kts | 47° |
| 2026-04-24 08:14 | 41.80111 | -72.19556 | 33743 ft | 511 kts | 47° |
| 2026-04-24 08:14 | 41.81937 | -72.15469 | 34060 ft | 511 kts | 47° |
| 2026-04-24 08:15 | 41.83761 | -72.11375 | 34389 ft | 509 kts | 47° |
| 2026-04-24 08:15 | 41.85572 | -72.07305 | 34711 ft | 508 kts | 47° |
| 2026-04-24 08:15 | 41.87386 | -72.03230 | 34898 ft | 510 kts | 47° |
| 2026-04-24 08:16 | 41.91026 | -71.95059 | 34924 ft | 514 kts | 47° |
| 2026-04-24 08:16 | 41.94674 | -71.86805 | 34917 ft | 513 kts | 47° |
| 2026-04-24 08:17 | 41.98365 | -71.78636 | 34914 ft | 510 kts | 45° |
| 2026-04-24 08:17 | 42.02204 | -71.70650 | 34914 ft | 508 kts | 44° |
| 2026-04-24 08:18 | 42.06055 | -71.62660 | 34913 ft | 509 kts | 44° |
| 2026-04-24 08:18 | 42.09872 | -71.54640 | 34914 ft | 509 kts | 45° |
| 2026-04-24 08:19 | 42.13018 | -71.47975 | 34919 ft | 510 kts | 45° |
| 2026-04-24 08:19 | 42.16829 | -71.39870 | 34930 ft | 510 kts | 45° |
| 2026-04-24 08:20 | 42.20623 | -71.31785 | 34928 ft | 510 kts | 45° |
| 2026-04-24 08:20 | 42.24411 | -71.23693 | 34922 ft | 510 kts | 45° |
| 2026-04-24 08:21 | 42.28194 | -71.15588 | 34930 ft | 511 kts | 45° |
| 2026-04-24 08:21 | 42.31975 | -71.07470 | 34923 ft | 511 kts | 45° |
| 2026-04-24 08:21 | 42.33703 | -71.03198 | 34918 ft | 525 kts | 54° |
| 2026-04-24 08:22 | 42.34978 | -70.98504 | 34912 ft | 541 kts | 64° |
| 2026-04-24 08:22 | 42.35651 | -70.93420 | 34919 ft | 558 kts | 76° |
| 2026-04-24 08:22 | 42.35758 | -70.88147 | 34917 ft | 564 kts | 82° |
| 2026-04-24 08:23 | 42.35534 | -70.77503 | 34924 ft | 568 kts | 84° |
| 2026-04-24 08:23 | 42.35174 | -70.66840 | 34921 ft | 568 kts | 84° |
| 2026-04-24 08:24 | 42.34850 | -70.56180 | 34917 ft | 567 kts | 84° |
| 2026-04-24 08:24 | 42.34557 | -70.45533 | 34922 ft | 567 kts | 84° |
| 2026-04-24 08:25 | 42.34266 | -70.34871 | 34914 ft | 567 kts | 84° |
| 2026-04-24 08:25 | 42.33964 | -70.24214 | 34921 ft | 567 kts | 84° |
| 2026-04-24 08:26 | 42.33649 | -70.13559 | 34922 ft | 568 kts | 84° |
| 2026-04-24 08:26 | 42.33362 | -70.04141 | 34915 ft | 568 kts | 84° |
| 2026-04-24 08:27 | 42.33028 | -69.93474 | 34917 ft | 568 kts | 84° |
| 2026-04-24 08:27 | 42.32684 | -69.82819 | 34914 ft | 568 kts | 85° |
| 2026-04-24 08:28 | 42.32330 | -69.72156 | 34911 ft | 568 kts | 85° |
| 2026-04-24 08:28 | 42.31969 | -69.61576 | 34912 ft | 567 kts | 85° |
| 2026-04-24 08:29 | 42.31595 | -69.50933 | 34909 ft | 567 kts | 85° |
| 2026-04-24 08:29 | 42.31212 | -69.40304 | 34906 ft | 566 kts | 85° |
| 2026-04-24 08:30 | 42.30821 | -69.29676 | 34904 ft | 566 kts | 85° |
| 2026-04-24 08:30 | 42.30421 | -69.19071 | 34902 ft | 565 kts | 85° |
| 2026-04-24 08:31 | 42.30010 | -69.08478 | 34901 ft | 565 kts | 86° |
| 2026-04-24 08:31 | 42.29589 | -68.97873 | 34897 ft | 564 kts | 86° |
| 2026-04-24 08:32 | 42.29160 | -68.87304 | 34898 ft | 564 kts | 86° |
| 2026-04-24 08:32 | 42.28720 | -68.76729 | 34888 ft | 564 kts | 86° |
| 2026-04-24 08:33 | 42.28271 | -68.66152 | 34888 ft | 564 kts | 86° |
| 2026-04-24 08:33 | 42.27812 | -68.55576 | 34888 ft | 564 kts | 86° |
| 2026-04-24 08:34 | 42.27345 | -68.45010 | 34886 ft | 564 kts | 86° |
| 2026-04-24 08:34 | 42.26870 | -68.34512 | 34885 ft | 564 kts | 87° |
| 2026-04-24 08:35 | 42.26383 | -68.23959 | 34881 ft | 564 kts | 87° |
| 2026-04-24 08:35 | 42.25886 | -68.13404 | 34882 ft | 563 kts | 87° |
| 2026-04-24 08:36 | 42.25380 | -68.02869 | 34868 ft | 563 kts | 87° |
| 2026-04-24 08:36 | 42.24882 | -67.92683 | 34880 ft | 562 kts | 88° |
| 2026-04-24 08:37 | 42.24358 | -67.82150 | 34878 ft | 562 kts | 88° |
| 2026-04-24 08:37 | 42.23828 | -67.71706 | 34874 ft | 561 kts | 88° |
| 2026-04-24 08:38 | 42.23284 | -67.61183 | 34873 ft | 561 kts | 88° |
| 2026-04-24 08:38 | 42.22732 | -67.50678 | 34869 ft | 561 kts | 88° |
| 2026-04-24 08:39 | 42.22169 | -67.40162 | 34868 ft | 561 kts | 88° |
| 2026-04-24 08:39 | 42.21597 | -67.29647 | 34864 ft | 561 kts | 88° |
| 2026-04-24 08:40 | 42.21015 | -67.19127 | 34862 ft | 561 kts | 88° |
| 2026-04-24 08:40 | 42.20428 | -67.08686 | 34860 ft | 561 kts | 89° |
| 2026-04-24 08:41 | 42.20587 | -67.00048 | 34861 ft | 546 kts | 73° |
| 2026-04-24 08:41 | 42.21333 | -66.95764 | 34862 ft | 535 kts | 63° |
| 2026-04-24 08:41 | 42.22476 | -66.91353 | 34851 ft | 532 kts | 61° |
| 2026-04-24 08:42 | 42.25211 | -66.82074 | 34850 ft | 532 kts | 59° |
| 2026-04-24 08:42 | 42.28036 | -66.72837 | 34854 ft | 532 kts | 59° |
| 2026-04-24 08:43 | 42.30827 | -66.63570 | 34847 ft | 533 kts | 60° |
| 2026-04-24 08:43 | 42.33585 | -66.54280 | 34848 ft | 533 kts | 60° |
| 2026-04-24 08:44 | 42.36327 | -66.44973 | 34837 ft | 533 kts | 60° |
| 2026-04-24 08:44 | 42.39063 | -66.35654 | 34835 ft | 533 kts | 60° |
| 2026-04-24 08:45 | 42.41793 | -66.26327 | 34830 ft | 533 kts | 60° |
| 2026-04-24 08:45 | 42.44515 | -66.16998 | 34828 ft | 533 kts | 61° |
| 2026-04-24 08:46 | 42.47228 | -66.07664 | 34825 ft | 533 kts | 61° |
| 2026-04-24 08:46 | 42.49935 | -65.98321 | 34824 ft | 532 kts | 61° |
| 2026-04-24 08:47 | 42.52634 | -65.88969 | 34824 ft | 532 kts | 62° |
| 2026-04-24 08:47 | 42.55318 | -65.79636 | 34821 ft | 532 kts | 62° |
| 2026-04-24 08:48 | 42.57998 | -65.70281 | 34821 ft | 532 kts | 62° |
| 2026-04-24 08:48 | 42.60668 | -65.60925 | 34821 ft | 531 kts | 62° |
| 2026-04-24 08:49 | 42.63324 | -65.51579 | 34807 ft | 531 kts | 62° |
| 2026-04-24 08:49 | 42.65976 | -65.42217 | 34815 ft | 530 kts | 62° |
| 2026-04-24 08:50 | 42.68616 | -65.32865 | 34815 ft | 530 kts | 63° |
| 2026-04-24 08:50 | 42.71246 | -65.23511 | 34822 ft | 529 kts | 63° |
| 2026-04-24 08:51 | 42.73848 | -65.14220 | 34820 ft | 529 kts | 63° |
| 2026-04-24 08:51 | 42.76452 | -65.04888 | 34817 ft | 528 kts | 63° |
| 2026-04-24 08:52 | 42.79046 | -64.95562 | 34819 ft | 527 kts | 63° |
| 2026-04-24 08:52 | 42.81634 | -64.86217 | 34823 ft | 526 kts | 64° |
| 2026-04-24 08:53 | 42.84209 | -64.76887 | 34822 ft | 526 kts | 64° |
| 2026-04-24 08:53 | 42.86770 | -64.67571 | 34820 ft | 525 kts | 64° |
| 2026-04-24 08:54 | 42.89320 | -64.58257 | 34821 ft | 524 kts | 64° |
| 2026-04-24 08:54 | 42.91859 | -64.48951 | 34820 ft | 523 kts | 64° |
| 2026-04-24 08:55 | 42.94390 | -64.39636 | 34816 ft | 523 kts | 65° |
| 2026-04-24 08:55 | 42.96911 | -64.30327 | 34817 ft | 522 kts | 65° |
| 2026-04-24 08:56 | 42.99421 | -64.21022 | 34816 ft | 522 kts | 65° |
| 2026-04-24 08:56 | 43.01922 | -64.11713 | 34817 ft | 522 kts | 65° |
| 2026-04-24 08:57 | 43.04399 | -64.02459 | 34815 ft | 522 kts | 65° |
| 2026-04-24 08:57 | 43.06882 | -63.93147 | 34814 ft | 521 kts | 65° |
| 2026-04-24 08:58 | 43.09355 | -63.83834 | 34817 ft | 521 kts | 65° |
| 2026-04-24 08:58 | 43.11822 | -63.74511 | 34816 ft | 521 kts | 65° |
| 2026-04-24 08:59 | 43.14279 | -63.65189 | 34809 ft | 520 kts | 65° |
| 2026-04-24 08:59 | 43.16727 | -63.55864 | 34804 ft | 520 kts | 66° |
| 2026-04-24 09:00 | 43.19179 | -63.46487 | 34806 ft | 520 kts | 66° |
| 2026-04-24 09:00 | 43.21593 | -63.37221 | 34810 ft | 519 kts | 66° |
| 2026-04-24 09:01 | 43.24012 | -63.27900 | 34807 ft | 518 kts | 66° |
| 2026-04-24 09:01 | 43.26419 | -63.18588 | 34805 ft | 518 kts | 66° |
| 2026-04-24 09:02 | 43.28816 | -63.09276 | 34808 ft | 518 kts | 66° |
| 2026-04-24 09:02 | 43.31208 | -62.99949 | 34803 ft | 517 kts | 66° |
| 2026-04-24 09:03 | 43.33587 | -62.90635 | 34806 ft | 517 kts | 66° |
| 2026-04-24 09:03 | 43.35962 | -62.81303 | 34806 ft | 517 kts | 67° |
| 2026-04-24 09:04 | 43.38327 | -62.71969 | 34804 ft | 517 kts | 67° |
| 2026-04-24 09:04 | 43.40678 | -62.62654 | 34803 ft | 516 kts | 67° |
| 2026-04-24 09:05 | 43.43027 | -62.53311 | 34801 ft | 516 kts | 67° |
| 2026-04-24 09:05 | 43.45365 | -62.43976 | 34800 ft | 516 kts | 68° |
| 2026-04-24 09:06 | 43.47300 | -62.36217 | 34799 ft | 515 kts | 68° |
| 2026-04-24 09:06 | 43.49634 | -62.26826 | 34802 ft | 515 kts | 68° |
| 2026-04-24 09:07 | 43.51930 | -62.17553 | 34793 ft | 515 kts | 68° |
| 2026-04-24 09:07 | 43.55377 | -62.03555 | 34794 ft | 514 kts | 68° |
| 2026-04-24 09:08 | 43.57664 | -61.94221 | 34796 ft | 514 kts | 68° |
| 2026-04-24 09:08 | 43.59942 | -61.84885 | 34798 ft | 513 kts | 69° |
| 2026-04-24 09:09 | 43.62210 | -61.75552 | 34796 ft | 513 kts | 69° |
| 2026-04-24 09:09 | 43.64473 | -61.66204 | 34791 ft | 513 kts | 69° |
| 2026-04-24 09:10 | 43.66723 | -61.56870 | 34788 ft | 513 kts | 69° |
| 2026-04-24 09:10 | 43.68967 | -61.47523 | 34794 ft | 512 kts | 69° |
| 2026-04-24 09:11 | 43.71200 | -61.38181 | 34791 ft | 512 kts | 69° |
| 2026-04-24 09:11 | 43.73425 | -61.28835 | 34793 ft | 512 kts | 69° |
| 2026-04-24 09:12 | 43.75642 | -61.19483 | 34791 ft | 511 kts | 69° |
| 2026-04-24 09:12 | 43.77849 | -61.10133 | 34773 ft | 511 kts | 70° |
| 2026-04-24 09:13 | 43.80049 | -61.00778 | 34787 ft | 511 kts | 70° |
| 2026-04-24 09:13 | 43.82235 | -60.91439 | 34769 ft | 510 kts | 70° |
| 2026-04-24 09:14 | 43.84416 | -60.82083 | 34782 ft | 510 kts | 70° |
| 2026-04-24 09:14 | 43.86575 | -60.72783 | 34775 ft | 510 kts | 70° |
| 2026-04-24 09:15 | 43.88739 | -60.63424 | 34776 ft | 510 kts | 70° |
| 2026-04-24 09:15 | 43.90895 | -60.54053 | 34779 ft | 510 kts | 70° |
| 2026-04-24 09:16 | 43.93042 | -60.44685 | 34779 ft | 510 kts | 70° |
| 2026-04-24 09:16 | 43.95184 | -60.35300 | 34776 ft | 510 kts | 71° |
| 2026-04-24 09:17 | 43.97316 | -60.25920 | 34777 ft | 510 kts | 71° |
| 2026-04-24 09:17 | 43.99440 | -60.16529 | 34772 ft | 510 kts | 71° |
| 2026-04-24 09:18 | 44.01559 | -60.07124 | 34774 ft | 510 kts | 71° |
| 2026-04-24 09:18 | 44.03669 | -59.97716 | 34775 ft | 510 kts | 71° |
| 2026-04-24 09:19 | 44.05771 | -59.88299 | 34773 ft | 510 kts | 71° |
| 2026-04-24 09:19 | 44.07864 | -59.78887 | 34775 ft | 510 kts | 71° |
| 2026-04-24 09:20 | 44.10302 | -59.67867 | 34774 ft | 510 kts | 71° |
| 2026-04-24 09:20 | 44.12028 | -59.60034 | 34772 ft | 509 kts | 72° |
| 2026-04-24 09:21 | 44.14097 | -59.50603 | 34773 ft | 509 kts | 72° |
| 2026-04-24 09:21 | 44.16152 | -59.41195 | 34767 ft | 508 kts | 72° |
| 2026-04-24 09:22 | 44.18196 | -59.31790 | 34768 ft | 507 kts | 72° |
| 2026-04-24 09:22 | 44.20230 | -59.22394 | 34768 ft | 506 kts | 72° |
| 2026-04-24 09:23 | 44.22258 | -59.12986 | 34768 ft | 506 kts | 72° |
| 2026-04-24 09:23 | 44.24272 | -59.03596 | 34765 ft | 505 kts | 72° |
| 2026-04-24 09:24 | 44.26277 | -58.94209 | 34766 ft | 505 kts | 72° |
| 2026-04-24 09:24 | 44.28272 | -58.84828 | 34765 ft | 504 kts | 73° |
| 2026-04-24 09:25 | 44.30246 | -58.75501 | 34763 ft | 504 kts | 73° |
| 2026-04-24 09:25 | 44.32222 | -58.66122 | 34760 ft | 503 kts | 73° |
| 2026-04-24 09:26 | 44.34188 | -58.56747 | 34760 ft | 503 kts | 73° |
| 2026-04-24 09:26 | 44.36160 | -58.47299 | 34762 ft | 503 kts | 73° |
| 2026-04-24 09:27 | 44.38111 | -58.37913 | 34757 ft | 503 kts | 73° |
| 2026-04-24 09:27 | 44.40040 | -58.28590 | 34757 ft | 503 kts | 73° |
| 2026-04-24 09:28 | 44.41976 | -58.19186 | 34755 ft | 503 kts | 74° |
| 2026-04-24 09:28 | 44.43903 | -58.09782 | 34753 ft | 503 kts | 74° |
| 2026-04-24 09:29 | 44.45825 | -58.00361 | 34749 ft | 504 kts | 74° |
| 2026-04-24 09:29 | 44.47738 | -57.90945 | 34747 ft | 504 kts | 74° |
| 2026-04-24 09:30 | 44.49649 | -57.81483 | 34754 ft | 504 kts | 75° |
| 2026-04-24 09:30 | 44.51547 | -57.72042 | 34754 ft | 503 kts | 75° |
| 2026-04-24 09:31 | 44.53436 | -57.62600 | 34749 ft | 503 kts | 75° |
| 2026-04-24 09:31 | 44.55320 | -57.53144 | 34749 ft | 503 kts | 75° |
| 2026-04-24 09:32 | 44.57194 | -57.43691 | 34748 ft | 503 kts | 75° |
| 2026-04-24 09:32 | 44.59057 | -57.34248 | 34743 ft | 502 kts | 75° |
| 2026-04-24 09:33 | 44.60912 | -57.24810 | 34736 ft | 502 kts | 75° |
| 2026-04-24 09:33 | 44.62757 | -57.15370 | 34743 ft | 501 kts | 76° |
| 2026-04-24 09:34 | 44.64595 | -57.05917 | 34741 ft | 502 kts | 76° |
| 2026-04-24 09:34 | 44.66423 | -56.96469 | 34734 ft | 502 kts | 76° |
| 2026-04-24 09:35 | 44.68246 | -56.86998 | 34727 ft | 502 kts | 76° |
| 2026-04-24 09:35 | 44.70062 | -56.77525 | 34729 ft | 502 kts | 76° |
| 2026-04-24 09:36 | 44.71868 | -56.68048 | 34728 ft | 501 kts | 76° |
| 2026-04-24 09:36 | 44.73667 | -56.58582 | 34730 ft | 501 kts | 76° |
| 2026-04-24 09:37 | 44.75445 | -56.49162 | 34723 ft | 501 kts | 76° |
| 2026-04-24 09:37 | 44.77224 | -56.39691 | 34723 ft | 501 kts | 76° |
| 2026-04-24 09:38 | 44.78996 | -56.30211 | 34723 ft | 501 kts | 76° |
| 2026-04-24 09:38 | 44.80759 | -56.20736 | 34721 ft | 500 kts | 77° |
| 2026-04-24 09:39 | 44.82509 | -56.11263 | 34716 ft | 500 kts | 77° |
| 2026-04-24 09:39 | 44.84255 | -56.01767 | 34717 ft | 500 kts | 77° |
| 2026-04-24 09:40 | 44.85994 | -55.92276 | 34718 ft | 500 kts | 77° |
| 2026-04-24 09:40 | 44.87727 | -55.82776 | 34712 ft | 500 kts | 77° |
| 2026-04-24 09:41 | 44.89453 | -55.73261 | 34713 ft | 500 kts | 77° |
| 2026-04-24 09:41 | 44.91169 | -55.63756 | 34713 ft | 501 kts | 77° |
| 2026-04-24 09:42 | 44.92876 | -55.54224 | 34709 ft | 501 kts | 77° |
| 2026-04-24 09:42 | 44.94575 | -55.44699 | 34709 ft | 501 kts | 77° |
| 2026-04-24 09:43 | 44.96267 | -55.35164 | 34710 ft | 501 kts | 77° |
| 2026-04-24 09:43 | 44.97954 | -55.25615 | 34704 ft | 501 kts | 78° |
| 2026-04-24 09:44 | 44.99630 | -55.16070 | 34706 ft | 501 kts | 78° |
| 2026-04-24 09:44 | 45.01300 | -55.06518 | 34705 ft | 501 kts | 78° |
| 2026-04-24 09:45 | 45.02960 | -54.96965 | 34704 ft | 500 kts | 78° |
| 2026-04-24 09:45 | 45.04609 | -54.87417 | 34701 ft | 500 kts | 78° |
| 2026-04-24 09:46 | 45.06254 | -54.77853 | 34698 ft | 500 kts | 78° |
| 2026-04-24 09:46 | 45.07887 | -54.68296 | 34702 ft | 500 kts | 78° |
| 2026-04-24 09:47 | 45.09512 | -54.58740 | 34696 ft | 500 kts | 78° |
| 2026-04-24 09:47 | 45.11131 | -54.49169 | 34699 ft | 499 kts | 78° |
| 2026-04-24 09:48 | 45.12739 | -54.39602 | 34694 ft | 499 kts | 78° |
| 2026-04-24 09:48 | 45.14341 | -54.30035 | 34697 ft | 499 kts | 78° |
| 2026-04-24 09:49 | 45.15935 | -54.20457 | 34693 ft | 499 kts | 78° |
| 2026-04-24 09:49 | 45.17509 | -54.10935 | 34692 ft | 500 kts | 79° |
| 2026-04-24 09:50 | 45.19098 | -54.01274 | 34693 ft | 500 kts | 79° |
| 2026-04-24 09:50 | 45.20669 | -53.91669 | 34693 ft | 500 kts | 79° |
| 2026-04-24 09:51 | 45.21968 | -53.83681 | 34689 ft | 500 kts | 79° |
| 2026-04-24 09:51 | 45.23523 | -53.74076 | 34695 ft | 500 kts | 79° |
| 2026-04-24 09:52 | 45.25071 | -53.64449 | 34694 ft | 500 kts | 79° |
| 2026-04-24 09:52 | 45.26611 | -53.54822 | 34694 ft | 500 kts | 79° |
| 2026-04-24 09:53 | 45.28143 | -53.45193 | 34694 ft | 500 kts | 79° |
| 2026-04-24 09:53 | 45.29669 | -53.35547 | 34693 ft | 500 kts | 79° |
| 2026-04-24 09:54 | 45.31186 | -53.25893 | 34695 ft | 500 kts | 79° |
| 2026-04-24 09:54 | 45.32694 | -53.16247 | 34693 ft | 500 kts | 79° |
| 2026-04-24 09:55 | 45.34194 | -53.06595 | 34692 ft | 500 kts | 79° |
| 2026-04-24 09:55 | 45.35685 | -52.96936 | 34693 ft | 500 kts | 80° |
| 2026-04-24 09:56 | 45.37169 | -52.87272 | 34692 ft | 500 kts | 80° |
| 2026-04-24 09:56 | 45.38636 | -52.77659 | 34692 ft | 500 kts | 80° |
| 2026-04-24 09:57 | 45.40102 | -52.67992 | 34696 ft | 500 kts | 80° |
| 2026-04-24 09:57 | 45.41563 | -52.58300 | 34697 ft | 501 kts | 80° |
| 2026-04-24 09:58 | 45.43016 | -52.48606 | 34698 ft | 501 kts | 80° |
| 2026-04-24 09:58 | 45.44469 | -52.38851 | 34697 ft | 501 kts | 81° |
| 2026-04-24 09:59 | 45.45896 | -52.29204 | 34698 ft | 501 kts | 81° |
| 2026-04-24 09:59 | 45.47325 | -52.19487 | 34698 ft | 501 kts | 81° |
| 2026-04-24 10:00 | 45.48743 | -52.09781 | 34848 ft | 500 kts | 81° |
| 2026-04-24 10:00 | 45.49446 | -52.04938 | 35222 ft | 496 kts | 81° |
| 2026-04-24 10:00 | 45.49985 | -52.00090 | 35449 ft | 495 kts | 85° |
| 2026-04-24 10:01 | 45.50427 | -51.95221 | 35587 ft | 498 kts | 85° |
| 2026-04-24 10:01 | 45.51107 | -51.90361 | 35793 ft | 502 kts | 77° |
| 2026-04-24 10:01 | 45.52159 | -51.85601 | 35986 ft | 504 kts | 73° |
| 2026-04-24 10:01 | 45.53315 | -51.80868 | 36191 ft | 506 kts | 72° |
| 2026-04-24 10:02 | 45.54516 | -51.76164 | 36399 ft | 506 kts | 71° |
| 2026-04-24 10:02 | 45.55743 | -51.71449 | 36627 ft | 506 kts | 71° |
| 2026-04-24 10:02 | 45.58204 | -51.62019 | 36721 ft | 507 kts | 71° |
| 2026-04-24 10:03 | 45.60640 | -51.52581 | 36725 ft | 507 kts | 72° |
| 2026-04-24 10:03 | 45.63055 | -51.43124 | 36738 ft | 507 kts | 72° |
| 2026-04-24 10:04 | 45.65465 | -51.33637 | 36723 ft | 507 kts | 72° |
| 2026-04-24 10:04 | 45.67866 | -51.24152 | 36737 ft | 508 kts | 72° |
| 2026-04-24 10:05 | 45.70262 | -51.14656 | 36741 ft | 508 kts | 72° |
| 2026-04-24 10:05 | 45.72651 | -51.05144 | 36738 ft | 508 kts | 72° |
| 2026-04-24 10:06 | 45.76221 | -50.90856 | 36747 ft | 508 kts | 72° |
| 2026-04-24 10:07 | 45.78592 | -50.81316 | 36753 ft | 508 kts | 72° |
| 2026-04-24 10:07 | 45.80940 | -50.71830 | 36756 ft | 508 kts | 72° |
| 2026-04-24 10:08 | 45.83294 | -50.62282 | 36759 ft | 508 kts | 72° |
| 2026-04-24 10:08 | 45.85643 | -50.52714 | 36759 ft | 508 kts | 72° |
| 2026-04-24 10:09 | 45.87984 | -50.43138 | 36766 ft | 508 kts | 72° |
| 2026-04-24 10:09 | 45.90311 | -50.33575 | 36770 ft | 508 kts | 72° |
| 2026-04-24 10:10 | 45.92634 | -50.23991 | 36774 ft | 507 kts | 72° |
| 2026-04-24 10:10 | 45.94942 | -50.14426 | 36776 ft | 507 kts | 72° |
| 2026-04-24 10:11 | 45.97240 | -50.04859 | 36788 ft | 506 kts | 72° |
| 2026-04-24 10:11 | 45.99542 | -49.95299 | 36789 ft | 506 kts | 72° |
| 2026-04-24 10:12 | 46.01933 | -49.85786 | 36791 ft | 505 kts | 71° |
| 2026-04-24 10:12 | 46.04338 | -49.76280 | 36792 ft | 505 kts | 71° |
| 2026-04-24 10:13 | 46.06720 | -49.66778 | 36793 ft | 504 kts | 72° |
| 2026-04-24 10:13 | 46.09078 | -49.57285 | 36795 ft | 504 kts | 72° |
| 2026-04-24 10:14 | 46.11428 | -49.47778 | 36796 ft | 503 kts | 72° |
| 2026-04-24 10:14 | 46.13765 | -49.38279 | 36799 ft | 502 kts | 72° |
| 2026-04-24 10:15 | 46.16093 | -49.28783 | 36802 ft | 502 kts | 72° |
| 2026-04-24 10:15 | 46.18400 | -49.19332 | 36802 ft | 501 kts | 72° |
| 2026-04-24 10:16 | 46.20717 | -49.09805 | 36804 ft | 501 kts | 72° |
| 2026-04-24 10:16 | 46.23011 | -49.00326 | 36807 ft | 500 kts | 72° |
| 2026-04-24 10:17 | 46.25298 | -48.90835 | 36804 ft | 500 kts | 72° |
| 2026-04-24 10:17 | 46.27559 | -48.81413 | 36812 ft | 500 kts | 72° |
| 2026-04-24 10:18 | 46.29829 | -48.71919 | 36812 ft | 499 kts | 72° |
| 2026-04-24 10:18 | 46.32085 | -48.62436 | 36812 ft | 499 kts | 72° |
| 2026-04-24 10:19 | 46.34334 | -48.52943 | 36808 ft | 498 kts | 72° |
| 2026-04-24 10:19 | 46.36572 | -48.43454 | 36821 ft | 498 kts | 72° |
| 2026-04-24 10:20 | 46.38800 | -48.33971 | 36813 ft | 497 kts | 73° |
| 2026-04-24 10:20 | 46.41020 | -48.24479 | 36819 ft | 497 kts | 73° |
| 2026-04-24 10:21 | 46.43228 | -48.14995 | 36820 ft | 497 kts | 73° |
| 2026-04-24 10:21 | 46.45427 | -48.05509 | 36824 ft | 496 kts | 73° |
| 2026-04-24 10:22 | 46.47618 | -47.96021 | 36826 ft | 496 kts | 73° |
| 2026-04-24 10:22 | 46.49798 | -47.86533 | 36828 ft | 495 kts | 73° |
| 2026-04-24 10:23 | 46.51968 | -47.77052 | 36827 ft | 495 kts | 73° |
| 2026-04-24 10:23 | 46.54127 | -47.67571 | 36825 ft | 494 kts | 73° |
| 2026-04-24 10:24 | 46.56276 | -47.58099 | 36828 ft | 493 kts | 73° |
| 2026-04-24 10:24 | 46.58414 | -47.48629 | 36840 ft | 493 kts | 73° |
| 2026-04-24 10:25 | 46.60541 | -47.39166 | 36833 ft | 492 kts | 73° |
| 2026-04-24 10:25 | 46.62657 | -47.29712 | 36834 ft | 492 kts | 73° |
| 2026-04-24 10:26 | 46.64764 | -47.20254 | 36834 ft | 491 kts | 73° |
| 2026-04-24 10:26 | 46.66849 | -47.10854 | 36833 ft | 491 kts | 74° |
| 2026-04-24 10:27 | 46.68937 | -47.01399 | 36833 ft | 490 kts | 74° |
| 2026-04-24 10:27 | 46.71011 | -46.91961 | 36832 ft | 490 kts | 74° |
| 2026-04-24 10:28 | 46.73079 | -46.82509 | 36835 ft | 489 kts | 74° |
| 2026-04-24 10:28 | 46.75139 | -46.73053 | 36833 ft | 489 kts | 74° |
| 2026-04-24 10:29 | 46.77193 | -46.63583 | 36834 ft | 489 kts | 74° |
| 2026-04-24 10:29 | 46.79233 | -46.54128 | 36833 ft | 489 kts | 74° |
| 2026-04-24 10:30 | 46.81269 | -46.44653 | 36836 ft | 489 kts | 74° |
| 2026-04-24 10:30 | 46.83294 | -46.35183 | 36836 ft | 489 kts | 74° |
| 2026-04-24 10:31 | 46.85314 | -46.25696 | 36842 ft | 489 kts | 74° |
| 2026-04-24 10:31 | 46.87324 | -46.16211 | 36838 ft | 489 kts | 74° |
| 2026-04-24 10:32 | 46.89327 | -46.06716 | 36833 ft | 489 kts | 74° |
| 2026-04-24 10:32 | 46.91321 | -45.97214 | 36838 ft | 489 kts | 74° |
| 2026-04-24 10:33 | 46.93309 | -45.87703 | 36836 ft | 489 kts | 74° |
| 2026-04-24 10:33 | 46.95290 | -45.78176 | 36832 ft | 489 kts | 74° |
| 2026-04-24 10:34 | 46.97264 | -45.68635 | 36844 ft | 490 kts | 74° |
| 2026-04-24 10:34 | 46.99230 | -45.59094 | 36826 ft | 490 kts | 74° |
| 2026-04-24 10:35 | 47.01193 | -45.49519 | 36835 ft | 491 kts | 74° |
| 2026-04-24 10:35 | 47.03147 | -45.39940 | 36835 ft | 491 kts | 74° |
| 2026-04-24 10:36 | 47.05099 | -45.30326 | 36829 ft | 492 kts | 74° |
| 2026-04-24 10:36 | 47.07044 | -45.20700 | 36832 ft | 493 kts | 74° |
| 2026-04-24 10:37 | 47.08983 | -45.11057 | 36833 ft | 493 kts | 74° |
| 2026-04-24 10:37 | 47.10919 | -45.01390 | 36833 ft | 494 kts | 74° |
| 2026-04-24 10:38 | 47.12844 | -44.91717 | 36832 ft | 494 kts | 74° |
| 2026-04-24 10:38 | 47.14441 | -44.83656 | 36831 ft | 495 kts | 74° |
| 2026-04-24 10:39 | 47.16360 | -44.73926 | 36831 ft | 496 kts | 74° |
| 2026-04-24 10:39 | 47.18271 | -44.64199 | 36830 ft | 496 kts | 74° |
| 2026-04-24 10:40 | 47.20174 | -44.54455 | 36829 ft | 496 kts | 74° |
| 2026-04-24 10:40 | 47.22069 | -44.44702 | 36834 ft | 495 kts | 74° |
| 2026-04-24 10:41 | 47.23951 | -44.34965 | 36825 ft | 495 kts | 73° |
| 2026-04-24 10:41 | 47.25828 | -44.25208 | 36827 ft | 495 kts | 73° |
| 2026-04-24 10:42 | 47.27694 | -44.15461 | 36829 ft | 495 kts | 73° |
| 2026-04-24 10:42 | 47.29552 | -44.05701 | 36831 ft | 495 kts | 73° |
| 2026-04-24 10:43 | 47.31404 | -43.95925 | 36826 ft | 495 kts | 73° |
| 2026-04-24 10:43 | 47.33248 | -43.86139 | 36824 ft | 495 kts | 73° |
| 2026-04-24 10:44 | 47.35073 | -43.76412 | 36820 ft | 496 kts | 72° |
| 2026-04-24 10:44 | 47.36914 | -43.66538 | 36820 ft | 496 kts | 72° |
| 2026-04-24 10:45 | 47.38731 | -43.56741 | 36818 ft | 495 kts | 73° |
| 2026-04-24 10:45 | 47.39644 | -43.51828 | 37102 ft | 498 kts | 75° |
| 2026-04-24 10:45 | 47.40556 | -43.46885 | 36859 ft | 500 kts | 75° |
| 2026-04-24 10:46 | 47.42362 | -43.37023 | 36817 ft | 501 kts | 75° |
| 2026-04-24 10:46 | 47.44156 | -43.27183 | 36819 ft | 501 kts | 75° |
| 2026-04-24 10:47 | 47.45978 | -43.17144 | 36813 ft | 501 kts | 75° |
| 2026-04-24 10:47 | 47.47774 | -43.07200 | 36811 ft | 501 kts | 75° |
| 2026-04-24 10:48 | 47.49559 | -42.97260 | 36812 ft | 501 kts | 75° |
| 2026-04-24 10:48 | 47.51339 | -42.87293 | 36814 ft | 501 kts | 75° |
| 2026-04-24 10:49 | 47.53107 | -42.77340 | 36812 ft | 501 kts | 76° |
| 2026-04-24 10:49 | 47.54868 | -42.67371 | 36813 ft | 501 kts | 76° |
| 2026-04-24 10:50 | 47.56621 | -42.57390 | 36810 ft | 500 kts | 76° |
| 2026-04-24 10:50 | 47.58364 | -42.47411 | 36811 ft | 500 kts | 76° |
| 2026-04-24 10:51 | 47.60097 | -42.37432 | 36808 ft | 500 kts | 76° |
| 2026-04-24 10:51 | 47.61822 | -42.27439 | 36810 ft | 500 kts | 76° |
| 2026-04-24 10:52 | 47.63536 | -42.17457 | 36805 ft | 500 kts | 76° |
| 2026-04-24 10:52 | 47.65242 | -42.07466 | 36802 ft | 500 kts | 76° |
| 2026-04-24 10:53 | 47.66939 | -41.97472 | 36802 ft | 499 kts | 76° |
| 2026-04-24 10:53 | 47.68624 | -41.87484 | 36797 ft | 499 kts | 76° |
| 2026-04-24 10:54 | 47.70301 | -41.77491 | 36795 ft | 499 kts | 76° |
| 2026-04-24 10:54 | 47.71967 | -41.67502 | 36793 ft | 499 kts | 76° |
| 2026-04-24 10:55 | 47.73616 | -41.57561 | 36796 ft | 499 kts | 76° |
| 2026-04-24 10:55 | 47.75265 | -41.47557 | 36789 ft | 499 kts | 77° |
| 2026-04-24 10:56 | 47.76907 | -41.37539 | 36785 ft | 499 kts | 77° |
| 2026-04-24 10:56 | 47.78539 | -41.27524 | 36788 ft | 499 kts | 77° |
| 2026-04-24 10:57 | 47.80163 | -41.17494 | 36785 ft | 499 kts | 77° |
| 2026-04-24 10:57 | 47.81780 | -41.07449 | 36784 ft | 499 kts | 77° |
| 2026-04-24 10:58 | 47.83386 | -40.97407 | 36787 ft | 499 kts | 77° |
| 2026-04-24 10:58 | 47.84986 | -40.87349 | 36782 ft | 499 kts | 77° |
| 2026-04-24 10:59 | 47.86577 | -40.77281 | 36776 ft | 500 kts | 77° |
| 2026-04-24 10:59 | 47.88161 | -40.67203 | 36775 ft | 500 kts | 77° |
| 2026-04-24 11:00 | 47.89734 | -40.57128 | 36772 ft | 500 kts | 77° |
| 2026-04-24 11:00 | 47.91302 | -40.47018 | 36773 ft | 500 kts | 77° |
| 2026-04-24 11:01 | 47.92860 | -40.36914 | 36770 ft | 501 kts | 77° |
| 2026-04-24 11:01 | 47.94414 | -40.26775 | 36762 ft | 501 kts | 77° |
| 2026-04-24 11:02 | 47.95956 | -40.16646 | 36770 ft | 501 kts | 77° |
| 2026-04-24 11:02 | 47.97490 | -40.06504 | 36776 ft | 501 kts | 78° |
| 2026-04-24 11:03 | 47.99326 | -39.96464 | 36775 ft | 502 kts | 71° |
| 2026-04-24 11:03 | 48.01710 | -39.86673 | 36771 ft | 503 kts | 70° |
| 2026-04-24 11:04 | 48.04161 | -39.76949 | 36759 ft | 503 kts | 69° |
| 2026-04-24 11:04 | 48.06622 | -39.67167 | 36753 ft | 503 kts | 70° |
| 2026-04-24 11:05 | 48.09064 | -39.57371 | 36755 ft | 503 kts | 70° |
| 2026-04-24 11:05 | 48.11493 | -39.47558 | 36756 ft | 503 kts | 70° |
| 2026-04-24 11:06 | 48.13912 | -39.37737 | 36751 ft | 503 kts | 70° |
| 2026-04-24 11:06 | 48.16328 | -39.27891 | 36744 ft | 503 kts | 70° |
| 2026-04-24 11:07 | 48.19932 | -39.13117 | 36738 ft | 504 kts | 70° |
| 2026-04-24 11:07 | 48.22330 | -39.03235 | 36738 ft | 504 kts | 70° |
| 2026-04-24 11:08 | 48.24718 | -38.93350 | 36735 ft | 505 kts | 70° |
| 2026-04-24 11:08 | 48.27102 | -38.83432 | 36732 ft | 505 kts | 70° |
| 2026-04-24 11:09 | 48.29479 | -38.73499 | 36737 ft | 506 kts | 70° |
| 2026-04-24 11:09 | 48.31849 | -38.63558 | 36720 ft | 506 kts | 70° |
| 2026-04-24 11:10 | 48.34213 | -38.53588 | 36718 ft | 506 kts | 70° |
| 2026-04-24 11:10 | 48.36569 | -38.43612 | 36718 ft | 507 kts | 70° |
| 2026-04-24 11:11 | 48.38904 | -38.33683 | 36714 ft | 507 kts | 70° |
| 2026-04-24 11:11 | 48.41243 | -38.23682 | 36714 ft | 507 kts | 70° |
| 2026-04-24 11:12 | 48.43578 | -38.13659 | 36712 ft | 507 kts | 70° |
| 2026-04-24 11:12 | 48.45900 | -38.03640 | 36719 ft | 507 kts | 70° |
| 2026-04-24 11:13 | 48.48218 | -37.93592 | 36701 ft | 507 kts | 70° |
| 2026-04-24 11:13 | 48.50527 | -37.83538 | 36697 ft | 507 kts | 70° |
| 2026-04-24 11:14 | 48.52828 | -37.73474 | 36702 ft | 508 kts | 70° |
| 2026-04-24 11:14 | 48.55101 | -37.63479 | 36708 ft | 508 kts | 70° |
| 2026-04-24 11:15 | 48.57406 | -37.53302 | 36697 ft | 508 kts | 70° |
| 2026-04-24 11:15 | 48.59685 | -37.43190 | 36697 ft | 509 kts | 70° |
| 2026-04-24 11:16 | 48.61956 | -37.33065 | 36693 ft | 509 kts | 70° |
| 2026-04-24 11:16 | 48.64206 | -37.22985 | 36677 ft | 510 kts | 70° |
| 2026-04-24 11:17 | 48.66480 | -37.12748 | 36685 ft | 510 kts | 70° |
| 2026-04-24 11:17 | 48.68731 | -37.02561 | 36683 ft | 511 kts | 70° |
| 2026-04-24 11:18 | 48.70974 | -36.92360 | 36678 ft | 511 kts | 70° |
| 2026-04-24 11:18 | 48.73209 | -36.82149 | 36678 ft | 512 kts | 70° |
| 2026-04-24 11:19 | 48.75441 | -36.71900 | 36671 ft | 512 kts | 70° |
| 2026-04-24 11:19 | 48.77663 | -36.61647 | 36669 ft | 512 kts | 70° |
| 2026-04-24 11:20 | 48.79879 | -36.51367 | 36674 ft | 513 kts | 70° |
| 2026-04-24 11:20 | 48.82085 | -36.41086 | 36673 ft | 513 kts | 70° |
| 2026-04-24 11:21 | 48.84286 | -36.30773 | 36666 ft | 514 kts | 70° |
| 2026-04-24 11:21 | 48.86479 | -36.20449 | 36665 ft | 514 kts | 70° |
| 2026-04-24 11:22 | 48.88668 | -36.10090 | 36672 ft | 514 kts | 70° |
| 2026-04-24 11:22 | 48.90845 | -35.99733 | 36659 ft | 515 kts | 71° |
| 2026-04-24 11:23 | 48.93001 | -35.89426 | 36658 ft | 515 kts | 71° |
| 2026-04-24 11:23 | 48.95165 | -35.79024 | 36651 ft | 516 kts | 71° |
| 2026-04-24 11:24 | 48.97323 | -35.68602 | 36648 ft | 516 kts | 71° |
| 2026-04-24 11:24 | 48.99471 | -35.58169 | 36649 ft | 517 kts | 71° |
| 2026-04-24 11:25 | 49.01610 | -35.47724 | 36653 ft | 517 kts | 71° |
| 2026-04-24 11:25 | 49.03744 | -35.37253 | 36648 ft | 518 kts | 71° |
| 2026-04-24 11:26 | 49.05869 | -35.26765 | 36646 ft | 518 kts | 71° |
| 2026-04-24 11:26 | 49.07630 | -35.18036 | 36642 ft | 518 kts | 71° |
| 2026-04-24 11:27 | 49.09743 | -35.07509 | 36646 ft | 518 kts | 71° |
| 2026-04-24 11:27 | 49.11842 | -34.96993 | 36641 ft | 519 kts | 71° |
| 2026-04-24 11:28 | 49.13936 | -34.86450 | 36639 ft | 519 kts | 71° |
| 2026-04-24 11:28 | 49.16021 | -34.75888 | 36638 ft | 519 kts | 71° |
| 2026-04-24 11:29 | 49.18095 | -34.65327 | 36637 ft | 519 kts | 71° |
| 2026-04-24 11:29 | 49.20159 | -34.54758 | 36633 ft | 519 kts | 72° |
| 2026-04-24 11:30 | 49.22216 | -34.44172 | 36636 ft | 519 kts | 72° |
| 2026-04-24 11:30 | 49.24261 | -34.33581 | 36629 ft | 519 kts | 72° |
| 2026-04-24 11:31 | 49.26297 | -34.22985 | 36626 ft | 519 kts | 72° |
| 2026-04-24 11:31 | 49.28321 | -34.12392 | 36627 ft | 519 kts | 72° |
| 2026-04-24 11:32 | 49.30335 | -34.01786 | 36626 ft | 519 kts | 72° |
| 2026-04-24 11:32 | 49.32342 | -33.91160 | 36626 ft | 518 kts | 72° |
| 2026-04-24 11:33 | 49.34336 | -33.80542 | 36621 ft | 518 kts | 72° |
| 2026-04-24 11:33 | 49.36320 | -33.69912 | 36619 ft | 518 kts | 72° |
| 2026-04-24 11:34 | 49.38273 | -33.59396 | 36620 ft | 518 kts | 72° |
| 2026-04-24 11:34 | 49.40257 | -33.48649 | 36619 ft | 518 kts | 72° |
| 2026-04-24 11:35 | 49.42210 | -33.38009 | 36612 ft | 518 kts | 73° |
| 2026-04-24 11:35 | 49.44152 | -33.27365 | 36615 ft | 517 kts | 73° |
| 2026-04-24 11:36 | 49.46054 | -33.16879 | 36618 ft | 517 kts | 73° |
| 2026-04-24 11:36 | 49.47973 | -33.06240 | 36614 ft | 517 kts | 73° |
| 2026-04-24 11:37 | 49.49828 | -32.95899 | 36610 ft | 517 kts | 73° |
| 2026-04-24 11:37 | 49.51731 | -32.85223 | 36607 ft | 517 kts | 73° |
| 2026-04-24 11:38 | 49.53621 | -32.74561 | 36609 ft | 517 kts | 73° |
| 2026-04-24 11:38 | 49.55502 | -32.63879 | 36606 ft | 517 kts | 73° |
| 2026-04-24 11:39 | 49.57308 | -32.53570 | 36609 ft | 517 kts | 73° |
| 2026-04-24 11:39 | 49.59172 | -32.42866 | 36604 ft | 517 kts | 73° |
| 2026-04-24 11:40 | 49.61024 | -32.32160 | 36600 ft | 517 kts | 74° |
| 2026-04-24 11:40 | 49.62867 | -32.21444 | 36601 ft | 517 kts | 74° |
| 2026-04-24 11:41 | 49.64698 | -32.10730 | 36598 ft | 517 kts | 74° |
| 2026-04-24 11:41 | 49.66521 | -32.00001 | 36600 ft | 517 kts | 74° |
| 2026-04-24 11:42 | 49.68334 | -31.89264 | 36605 ft | 516 kts | 74° |
| 2026-04-24 11:42 | 49.70136 | -31.78523 | 36587 ft | 516 kts | 74° |
| 2026-04-24 11:43 | 49.71926 | -31.67791 | 36601 ft | 516 kts | 74° |
| 2026-04-24 11:43 | 49.73705 | -31.57053 | 36606 ft | 516 kts | 75° |
| 2026-04-24 11:44 | 49.75476 | -31.46292 | 36590 ft | 516 kts | 75° |
| 2026-04-24 11:44 | 49.77235 | -31.35542 | 36591 ft | 516 kts | 75° |
| 2026-04-24 11:45 | 49.78984 | -31.24785 | 36608 ft | 515 kts | 75° |
| 2026-04-24 11:45 | 49.80723 | -31.14023 | 36592 ft | 516 kts | 75° |
| 2026-04-24 11:46 | 49.82441 | -31.03318 | 36606 ft | 515 kts | 75° |
| 2026-04-24 11:46 | 49.84159 | -30.92545 | 36590 ft | 515 kts | 75° |
| 2026-04-24 11:47 | 49.85867 | -30.81765 | 36596 ft | 515 kts | 75° |
| 2026-04-24 11:47 | 49.87562 | -30.70991 | 36597 ft | 515 kts | 75° |
| 2026-04-24 11:48 | 49.89248 | -30.60206 | 36596 ft | 515 kts | 75° |
| 2026-04-24 11:48 | 49.90925 | -30.49407 | 36593 ft | 514 kts | 76° |
| 2026-04-24 11:49 | 49.92587 | -30.38632 | 36600 ft | 514 kts | 76° |
| 2026-04-24 11:49 | 49.94225 | -30.27945 | 36604 ft | 514 kts | 76° |
| 2026-04-24 11:50 | 49.95852 | -30.17257 | 36606 ft | 514 kts | 76° |
| 2026-04-24 11:50 | 49.97503 | -30.06337 | 36602 ft | 514 kts | 76° |
| 2026-04-24 11:51 | 49.99134 | -29.95543 | 36606 ft | 513 kts | 76° |
| 2026-04-24 11:51 | 50.00705 | -29.84717 | 36606 ft | 513 kts | 77° |
| 2026-04-24 11:52 | 50.02243 | -29.73882 | 36607 ft | 513 kts | 77° |
| 2026-04-24 11:52 | 50.03778 | -29.63066 | 36618 ft | 513 kts | 77° |
| 2026-04-24 11:53 | 50.05311 | -29.52241 | 36620 ft | 512 kts | 77° |
| 2026-04-24 11:53 | 50.06837 | -29.41407 | 36607 ft | 512 kts | 77° |
| 2026-04-24 11:54 | 50.08340 | -29.30655 | 36617 ft | 512 kts | 77° |
| 2026-04-24 11:54 | 50.09841 | -29.19831 | 36612 ft | 511 kts | 77° |
| 2026-04-24 11:55 | 50.11333 | -29.08998 | 36622 ft | 511 kts | 77° |
| 2026-04-24 11:55 | 50.12814 | -28.98165 | 36617 ft | 511 kts | 77° |
| 2026-04-24 11:56 | 50.14284 | -28.87330 | 36618 ft | 511 kts | 78° |
| 2026-04-24 11:56 | 50.15743 | -28.76498 | 36619 ft | 510 kts | 78° |
| 2026-04-24 11:57 | 50.17192 | -28.65658 | 36622 ft | 510 kts | 78° |
| 2026-04-24 11:57 | 50.18631 | -28.54805 | 36634 ft | 511 kts | 78° |
| 2026-04-24 11:58 | 50.20060 | -28.43953 | 36623 ft | 510 kts | 78° |
| 2026-04-24 11:58 | 50.21474 | -28.33123 | 36629 ft | 510 kts | 78° |
| 2026-04-24 11:59 | 50.22883 | -28.22252 | 36641 ft | 510 kts | 78° |
| 2026-04-24 11:59 | 50.24283 | -28.11369 | 36630 ft | 510 kts | 79° |
| 2026-04-24 12:00 | 50.25669 | -28.00505 | 36637 ft | 510 kts | 79° |
| 2026-04-24 12:00 | 50.27045 | -27.89628 | 36656 ft | 510 kts | 79° |
| 2026-04-24 12:01 | 50.28411 | -27.78754 | 36635 ft | 510 kts | 79° |
| 2026-04-24 12:01 | 50.29767 | -27.67875 | 36652 ft | 509 kts | 79° |
| 2026-04-24 12:02 | 50.31105 | -27.57037 | 36653 ft | 509 kts | 79° |
| 2026-04-24 12:02 | 50.32445 | -27.46106 | 36654 ft | 509 kts | 79° |
| 2026-04-24 12:03 | 50.33767 | -27.35235 | 36661 ft | 509 kts | 79° |
| 2026-04-24 12:03 | 50.35078 | -27.24354 | 36670 ft | 508 kts | 79° |
| 2026-04-24 12:04 | 50.36381 | -27.13470 | 36661 ft | 508 kts | 80° |
| 2026-04-24 12:04 | 50.37669 | -27.02601 | 36671 ft | 507 kts | 80° |
| 2026-04-24 12:05 | 50.38938 | -26.91804 | 36670 ft | 507 kts | 80° |
| 2026-04-24 12:05 | 50.40203 | -26.80954 | 36670 ft | 506 kts | 80° |
| 2026-04-24 12:06 | 50.41457 | -26.70104 | 36678 ft | 506 kts | 80° |
| 2026-04-24 12:06 | 50.42700 | -26.59254 | 36681 ft | 505 kts | 80° |
| 2026-04-24 12:07 | 50.43933 | -26.48403 | 36682 ft | 505 kts | 80° |
| 2026-04-24 12:07 | 50.45155 | -26.37556 | 36689 ft | 505 kts | 81° |
| 2026-04-24 12:08 | 50.46366 | -26.26706 | 36697 ft | 504 kts | 81° |
| 2026-04-24 12:08 | 50.47566 | -26.15866 | 36694 ft | 504 kts | 81° |
| 2026-04-24 12:09 | 50.48756 | -26.05019 | 36699 ft | 504 kts | 81° |
| 2026-04-24 12:09 | 50.49936 | -25.94157 | 36702 ft | 504 kts | 81° |
| 2026-04-24 12:10 | 50.51104 | -25.83311 | 36704 ft | 504 kts | 81° |
| 2026-04-24 12:11 | 50.52837 | -25.67038 | 36714 ft | 503 kts | 81° |
| 2026-04-24 12:11 | 50.53972 | -25.56250 | 36716 ft | 503 kts | 81° |
| 2026-04-24 12:12 | 50.55112 | -25.45318 | 36715 ft | 503 kts | 82° |
| 2026-04-24 12:12 | 50.56232 | -25.34482 | 36717 ft | 503 kts | 82° |
| 2026-04-24 12:13 | 50.57344 | -25.23606 | 36727 ft | 502 kts | 82° |
| 2026-04-24 12:13 | 50.58433 | -25.12858 | 36726 ft | 502 kts | 82° |
| 2026-04-24 12:14 | 50.59345 | -25.03765 | 36731 ft | 502 kts | 82° |
| 2026-04-24 12:14 | 50.60426 | -24.92913 | 36730 ft | 501 kts | 82° |
| 2026-04-24 12:15 | 50.61494 | -24.82072 | 36736 ft | 501 kts | 82° |
| 2026-04-24 12:15 | 50.62552 | -24.71234 | 36734 ft | 501 kts | 82° |
| 2026-04-24 12:16 | 50.63600 | -24.60391 | 36742 ft | 500 kts | 82° |
| 2026-04-24 12:16 | 50.64638 | -24.49544 | 36745 ft | 500 kts | 83° |
| 2026-04-24 12:17 | 50.65664 | -24.38707 | 36749 ft | 500 kts | 83° |
| 2026-04-24 12:17 | 50.66679 | -24.27865 | 36751 ft | 500 kts | 83° |
| 2026-04-24 12:18 | 50.67687 | -24.17002 | 36759 ft | 500 kts | 83° |
| 2026-04-24 12:18 | 50.68514 | -24.07994 | 36759 ft | 500 kts | 83° |
| 2026-04-24 12:19 | 50.69502 | -23.97140 | 36768 ft | 500 kts | 83° |
| 2026-04-24 12:19 | 50.69990 | -23.91723 | 36764 ft | 500 kts | 83° |